createdAt,value
2019-02-28T00:01:02.283Z,33.43
2019-02-28T00:03:31.017Z,31.30
2019-02-28T00:05:59.553Z,31.00
2019-02-28T00:08:27.997Z,30.77
2019-02-28T00:10:56.537Z,29.57
2019-02-28T00:13:25.040Z,32.53
2019-02-28T00:15:53.626Z,31.10
2019-02-28T00:18:22.085Z,29.17
2019-02-28T00:20:50.533Z,34.20
2019-02-28T00:23:19.266Z,34.10
2019-02-28T00:25:49.163Z,35.10
2019-02-28T00:28:17.892Z,34.13
2019-02-28T00:30:46.401Z,34.53
2019-02-28T00:33:14.942Z,31.50
2019-02-28T00:35:44.705Z,33.20
2019-02-28T00:38:13.609Z,30.17
2019-02-28T00:40:42.108Z,30.87
2019-02-28T00:43:10.642Z,33.00
2019-02-28T00:45:39.085Z,40.37
2019-02-28T00:48:07.545Z,33.30
2019-02-28T00:50:35.981Z,36.43
2019-02-28T00:53:06.398Z,36.63
2019-02-28T00:55:34.747Z,31.60
2019-02-28T00:58:03.286Z,33.67
2019-02-28T01:00:31.792Z,34.57
2019-02-28T01:03:00.327Z,30.90
2019-02-28T01:05:28.838Z,33.17
2019-02-28T01:07:57.291Z,30.63
2019-02-28T01:10:25.738Z,33.67
2019-02-28T01:12:54.632Z,30.33
2019-02-28T01:15:23.299Z,33.63
2019-02-28T01:17:51.850Z,31.60
2019-02-28T01:20:20.414Z,31.03
2019-02-28T01:22:48.946Z,30.83
2019-02-28T01:25:18.422Z,33.10
2019-02-28T01:27:47.058Z,33.90
2019-02-28T01:30:17.113Z,31.63
2019-02-28T01:32:49.945Z,40.40
2019-02-28T01:35:16.468Z,36.87
2019-02-28T01:37:44.979Z,33.93
2019-02-28T01:40:14.880Z,35.90
2019-02-28T01:42:43.394Z,35.00
2019-02-28T01:45:13.094Z,40.17
2019-02-28T01:47:41.679Z,35.83
2019-02-28T01:50:13.927Z,33.77
2019-02-28T01:52:45.923Z,34.87
2019-02-28T01:55:12.869Z,38.80
2019-02-28T01:57:44.020Z,32.90
2019-02-28T02:00:17.419Z,37.43
2019-02-28T02:02:45.941Z,37.80
2019-02-28T02:05:16.820Z,39.50
2019-02-28T02:07:44.784Z,35.27
2019-02-28T02:10:21.299Z,37.90
2019-02-28T02:12:51.085Z,37.57
2019-02-28T02:15:19.886Z,36.13
2019-02-28T02:17:48.397Z,40.30
2019-02-28T02:20:17.595Z,37.80
2019-02-28T02:22:46.098Z,39.17
2019-02-28T02:25:14.896Z,46.93
2019-02-28T02:27:43.415Z,40.90
2019-02-28T02:30:15.898Z,42.70
2019-02-28T02:32:44.757Z,40.70
2019-02-28T02:35:13.868Z,42.17
2019-02-28T02:37:42.399Z,37.53
2019-02-28T02:40:17.446Z,38.80
2019-02-28T02:42:48.377Z,41.33
2019-02-28T02:45:16.297Z,42.77
2019-02-28T02:47:44.956Z,35.93
2019-02-28T02:50:16.417Z,38.97
2019-02-28T02:52:45.266Z,42.73
2019-02-28T02:55:14.408Z,39.00
2019-02-28T02:57:43.115Z,44.07
2019-02-28T03:00:17.318Z,39.53
2019-02-28T03:02:45.851Z,39.93
2019-02-28T03:05:15.012Z,48.93
2019-02-28T03:07:43.831Z,45.00
2019-02-28T03:10:19.386Z,38.20
2019-02-28T03:12:47.704Z,41.40
2019-02-28T03:15:24.779Z,38.07
2019-02-28T03:17:48.858Z,41.50
2019-02-28T03:20:17.978Z,42.10
2019-02-28T03:22:46.684Z,50.03
2019-02-28T03:25:16.441Z,39.10
2019-02-28T03:27:44.973Z,40.23
2019-02-28T03:30:28.746Z,44.90
2019-02-28T03:32:49.173Z,45.10
2019-02-28T03:35:17.754Z,35.60
2019-02-28T03:37:46.443Z,41.67
2019-02-28T03:40:15.989Z,41.83
2019-02-28T03:42:44.516Z,43.93
2019-02-28T03:45:16.032Z,40.50
2019-02-28T03:47:44.553Z,43.80
2019-02-28T03:50:13.650Z,41.47
2019-02-28T03:52:44.244Z,41.23
2019-02-28T03:55:13.760Z,40.00
2019-02-28T03:57:42.404Z,42.47
2019-02-28T04:00:22.412Z,44.60
2019-02-28T04:02:56.843Z,43.10
2019-02-28T04:05:26.706Z,44.63
2019-02-28T04:07:53.491Z,43.30
2019-02-28T04:10:22.611Z,42.77
2019-02-28T04:12:51.302Z,44.07
2019-02-28T04:15:20.513Z,45.73
2019-02-28T04:17:49.144Z,47.23
2019-02-28T04:20:17.814Z,52.03
2019-02-28T04:22:46.304Z,47.10
2019-02-28T04:25:14.833Z,53.53
2019-02-28T04:27:43.378Z,51.10
2019-02-28T04:30:13.224Z,52.20
2019-02-28T04:32:42.050Z,47.87
2019-02-28T04:35:11.035Z,54.43
2019-02-28T04:37:45.042Z,54.50
2019-02-28T04:40:12.329Z,61.27
2019-02-28T04:42:40.865Z,53.53
2019-02-28T04:45:11.738Z,52.20
2019-02-28T04:47:41.463Z,58.77
2019-02-28T04:50:11.640Z,51.63
2019-02-28T04:52:40.099Z,47.50
2019-02-28T04:55:09.781Z,53.93
2019-02-28T04:57:38.317Z,53.43
2019-02-28T05:00:09.775Z,52.80
2019-02-28T05:02:38.237Z,55.87
2019-02-28T05:05:11.921Z,51.33
2019-02-28T05:07:37.128Z,55.70
2019-02-28T05:10:07.672Z,50.33
2019-02-28T05:12:39.502Z,53.73
2019-02-28T05:15:08.923Z,54.10
2019-02-28T05:17:37.659Z,52.97
2019-02-28T05:20:10.762Z,56.37
2019-02-28T05:22:38.360Z,53.27
2019-02-28T05:25:08.787Z,47.93
2019-02-28T05:27:37.287Z,51.60
2019-02-28T05:30:11.572Z,50.43
2019-02-28T05:32:40.025Z,51.03
2019-02-28T05:35:08.768Z,49.70
2019-02-28T05:37:37.208Z,48.43
2019-02-28T05:40:08.775Z,49.67
2019-02-28T05:42:37.219Z,50.23
2019-02-28T05:45:07.419Z,49.63
2019-02-28T05:47:45.748Z,50.60
2019-02-28T05:50:08.779Z,51.47
2019-02-28T05:52:37.217Z,45.03
2019-02-28T05:55:08.188Z,45.87
2019-02-28T05:57:39.422Z,42.90
2019-02-28T06:00:20.738Z,41.60
2019-02-28T06:02:49.187Z,42.07
2019-02-28T06:05:17.649Z,44.50
2019-02-28T06:07:46.092Z,49.23
2019-02-28T06:10:15.652Z,46.77
2019-02-28T06:12:44.976Z,48.03
2019-02-28T06:15:15.693Z,47.87
2019-02-28T06:17:44.297Z,46.33
2019-02-28T06:20:16.540Z,45.30
2019-02-28T06:22:43.760Z,44.47
2019-02-28T06:25:22.845Z,49.30
2019-02-28T06:27:48.935Z,52.60
2019-02-28T06:30:16.401Z,48.73
2019-02-28T06:32:44.926Z,46.30
2019-02-28T06:35:16.476Z,53.13
2019-02-28T06:37:43.738Z,49.67
2019-02-28T06:40:14.455Z,57.10
2019-02-28T06:42:43.518Z,57.57
2019-02-28T06:45:15.089Z,49.03
2019-02-28T06:47:47.951Z,44.17
2019-02-28T06:50:15.265Z,50.77
2019-02-28T06:52:43.892Z,53.47
2019-02-28T06:55:20.284Z,51.53
2019-02-28T06:57:48.832Z,49.87
2019-02-28T07:00:18.269Z,52.10
2019-02-28T07:02:46.792Z,49.90
2019-02-28T07:05:15.315Z,49.63
2019-02-28T07:07:45.816Z,45.37
2019-02-28T07:10:17.931Z,49.03
2019-02-28T07:12:46.410Z,48.97
2019-02-28T07:15:15.544Z,49.93
2019-02-28T07:17:46.438Z,63.67
2019-02-28T07:20:15.876Z,61.50
2019-02-28T07:22:44.464Z,55.70
2019-02-28T07:25:13.902Z,59.40
2019-02-28T07:27:42.488Z,63.93
2019-02-28T07:30:19.491Z,51.30
2019-02-28T07:32:48.442Z,49.37
2019-02-28T07:35:17.297Z,52.53
2019-02-28T07:37:45.780Z,47.07
2019-02-28T07:40:17.342Z,44.40
2019-02-28T07:42:46.234Z,47.53
2019-02-28T07:45:15.727Z,47.53
2019-02-28T07:47:44.309Z,46.23
2019-02-28T07:50:14.869Z,45.37
2019-02-28T07:52:43.562Z,48.77
2019-02-28T07:55:16.636Z,39.10
2019-02-28T07:57:45.081Z,39.63
2019-02-28T08:00:21.584Z,40.53
2019-02-28T08:02:50.094Z,37.90
2019-02-28T08:05:18.993Z,33.83
2019-02-28T08:07:52.027Z,37.97
2019-02-28T08:10:20.968Z,38.47
2019-02-28T08:12:49.407Z,39.10
2019-02-28T08:15:22.300Z,38.63
2019-02-28T08:17:50.436Z,40.10
2019-02-28T08:20:20.485Z,41.77
2019-02-28T08:22:49.271Z,45.80
2019-02-28T08:25:17.796Z,43.13
2019-02-28T08:27:46.377Z,44.17
2019-02-28T08:30:34.528Z,43.37
2019-02-28T08:33:03.046Z,48.50
2019-02-28T08:35:34.894Z,48.27
2019-02-28T08:38:01.812Z,50.43
2019-02-28T08:40:30.341Z,50.63
2019-02-28T08:42:58.855Z,52.37
2019-02-28T08:45:32.726Z,52.93
2019-02-28T08:47:57.593Z,48.57
2019-02-28T08:50:26.892Z,47.83
2019-02-28T08:53:00.957Z,45.17
2019-02-28T08:55:29.551Z,51.57
2019-02-28T08:58:05.054Z,43.40
2019-02-28T09:00:32.791Z,51.93
2019-02-28T09:03:00.721Z,45.77
2019-02-28T09:05:30.200Z,43.27
2019-02-28T09:07:58.784Z,46.80
2019-02-28T09:10:27.528Z,44.97
2019-02-28T09:12:56.036Z,47.13
2019-02-28T09:15:30.147Z,43.67
2019-02-28T09:17:58.385Z,43.93
2019-02-28T09:20:25.388Z,43.03
2019-02-28T09:22:53.868Z,42.97
2019-02-28T09:25:26.940Z,39.37
2019-02-28T09:27:55.719Z,45.27
2019-02-28T09:30:41.709Z,43.97
2019-02-28T09:33:10.236Z,47.47
2019-02-28T09:35:38.762Z,45.83
2019-02-28T09:38:12.986Z,42.80
2019-02-28T09:40:37.530Z,36.17
2019-02-28T09:43:06.128Z,42.23
2019-02-28T09:45:35.015Z,43.57
2019-02-28T09:48:03.700Z,37.13
2019-02-28T09:50:33.350Z,36.40
2019-02-28T09:53:02.119Z,44.40
2019-02-28T09:55:34.326Z,42.83
2019-02-28T09:58:00.828Z,38.23
2019-02-28T10:00:30.199Z,37.87
2019-02-28T10:02:59.007Z,40.43
2019-02-28T10:05:27.524Z,38.33
2019-02-28T10:08:01.738Z,38.63
2019-02-28T10:10:28.598Z,39.37
2019-02-28T10:12:57.258Z,38.73
2019-02-28T10:15:27.404Z,38.23
2019-02-28T10:17:55.892Z,37.23
2019-02-28T10:20:28.746Z,37.80
2019-02-28T10:22:57.338Z,36.13
2019-02-28T10:25:25.795Z,35.33
2019-02-28T10:27:54.853Z,36.93
2019-02-28T10:30:31.771Z,35.77
2019-02-28T10:32:55.693Z,36.73
2019-02-28T10:35:24.234Z,35.93
2019-02-28T10:37:56.995Z,39.17
2019-02-28T10:40:30.886Z,40.10
2019-02-28T10:42:59.413Z,38.33
2019-02-28T10:45:28.436Z,35.10
2019-02-28T10:47:56.939Z,36.43
2019-02-28T10:50:33.574Z,37.97
2019-02-28T10:53:05.481Z,36.33
2019-02-28T10:55:33.415Z,37.67
2019-02-28T10:58:01.991Z,37.17
2019-02-28T11:00:34.215Z,39.67
2019-02-28T11:03:03.025Z,31.00
2019-02-28T11:05:33.631Z,37.07
2019-02-28T11:08:02.878Z,37.40
2019-02-28T11:10:35.644Z,35.30
2019-02-28T11:13:05.029Z,42.17
2019-02-28T11:15:33.686Z,36.57
2019-02-28T11:18:02.226Z,38.23
2019-02-28T11:20:30.993Z,39.37
2019-02-28T11:22:59.691Z,35.93
2019-02-28T11:25:29.313Z,36.60
2019-02-28T11:27:58.124Z,39.23
2019-02-28T11:30:28.303Z,44.07
2019-02-28T11:32:57.004Z,36.63
2019-02-28T11:35:25.524Z,44.20
2019-02-28T11:37:54.344Z,44.23
2019-02-28T11:40:24.896Z,39.23
2019-02-28T11:42:53.696Z,45.53
2019-02-28T11:45:25.548Z,44.20
2019-02-28T11:47:55.948Z,47.53
2019-02-28T11:50:24.608Z,44.70
2019-02-28T11:52:53.474Z,45.93
2019-02-28T11:55:22.080Z,46.90
2019-02-28T11:57:50.762Z,58.93
2019-02-28T12:00:22.032Z,51.83
2019-02-28T12:02:53.250Z,48.93
2019-02-28T12:05:21.072Z,49.27
2019-02-28T12:07:49.704Z,53.90
2019-02-28T12:10:18.487Z,48.13
2019-02-28T12:12:47.064Z,48.00
2019-02-28T12:15:27.720Z,44.27
2019-02-28T12:17:56.318Z,43.77
2019-02-28T12:20:26.447Z,52.70
2019-02-28T12:22:55.224Z,52.90
2019-02-28T12:25:23.697Z,56.53
2019-02-28T12:27:52.139Z,49.73
2019-02-28T12:30:25.198Z,50.77
2019-02-28T12:32:53.399Z,54.03
2019-02-28T12:35:21.856Z,46.20
2019-02-28T12:37:50.368Z,43.60
2019-02-28T12:40:27.187Z,44.27
2019-02-28T12:42:55.701Z,47.77
2019-02-28T12:45:29.866Z,46.73
2019-02-28T12:47:58.325Z,48.33
2019-02-28T12:50:29.453Z,44.30
2019-02-28T12:52:57.638Z,45.30
2019-02-28T12:55:26.248Z,36.50
2019-02-28T12:57:57.441Z,37.50
2019-02-28T13:00:30.520Z,36.23
2019-02-28T13:02:59.061Z,36.07
2019-02-28T13:05:27.939Z,38.33
2019-02-28T13:07:56.533Z,31.67
2019-02-28T13:10:27.957Z,30.47
2019-02-28T13:13:05.814Z,37.13
2019-02-28T13:15:25.592Z,29.50
2019-02-28T13:17:54.142Z,35.10
2019-02-28T13:20:32.235Z,30.83
2019-02-28T13:22:59.204Z,36.10
2019-02-28T13:25:26.194Z,24.10
2019-02-28T13:27:54.793Z,25.57
2019-02-28T13:30:25.686Z,23.07
2019-02-28T13:32:54.264Z,29.13
2019-02-28T13:35:28.354Z,25.77
2019-02-28T13:37:56.938Z,31.03
2019-02-28T13:40:25.481Z,28.23
2019-02-28T13:42:54.052Z,24.07
2019-02-28T13:45:23.946Z,22.90
2019-02-28T13:47:52.599Z,25.87
2019-02-28T13:50:27.097Z,25.23
2019-02-28T13:52:55.861Z,24.57
2019-02-28T13:55:24.464Z,23.80
2019-02-28T13:57:53.288Z,20.73
2019-02-28T14:00:29.335Z,19.53
2019-02-28T14:03:10.606Z,21.47
2019-02-28T14:05:41.592Z,20.07
2019-02-28T14:08:11.451Z,20.17
2019-02-28T14:10:39.624Z,18.03
2019-02-28T14:13:08.285Z,18.37
2019-02-28T14:15:42.843Z,17.40
2019-02-28T14:18:12.127Z,19.47
2019-02-28T14:20:40.888Z,17.33
2019-02-28T14:23:09.789Z,17.10
2019-02-28T14:25:39.825Z,15.97
2019-02-28T14:28:08.629Z,15.43
2019-02-28T14:30:37.144Z,17.67
2019-02-28T14:33:05.848Z,14.60
2019-02-28T14:35:36.655Z,16.27
2019-02-28T14:38:05.099Z,16.53
2019-02-28T14:40:33.537Z,16.13
2019-02-28T14:43:02.056Z,14.67
2019-02-28T14:45:39.173Z,18.67
2019-02-28T14:48:06.951Z,12.20
2019-02-28T14:50:41.199Z,16.67
2019-02-28T14:53:13.029Z,16.50
2019-02-28T14:55:39.902Z,15.13
2019-02-28T14:58:08.897Z,17.50
2019-02-28T15:00:38.894Z,12.03
2019-02-28T15:03:08.533Z,13.00
2019-02-28T15:05:39.317Z,12.43
2019-02-28T15:08:07.925Z,11.33
2019-02-28T15:10:36.644Z,15.37
2019-02-28T15:13:05.292Z,11.70
2019-02-28T15:15:36.272Z,11.87
2019-02-28T15:18:05.707Z,11.90
2019-02-28T15:20:34.240Z,13.80
2019-02-28T15:23:02.764Z,10.90
2019-02-28T15:25:31.598Z,12.27
2019-02-28T15:28:00.184Z,10.80
2019-02-28T15:30:33.974Z,11.37
2019-02-28T15:33:01.601Z,17.87
2019-02-28T15:35:30.133Z,14.13
2019-02-28T15:37:58.732Z,10.47
2019-02-28T15:40:29.601Z,12.37
2019-02-28T15:42:58.039Z,10.27
2019-02-28T15:45:27.012Z,12.17
2019-02-28T15:47:58.978Z,11.60
2019-02-28T15:50:26.251Z,18.47
2019-02-28T15:52:55.170Z,16.20
2019-02-28T15:55:24.469Z,14.53
2019-02-28T15:57:52.989Z,18.70
2019-02-28T16:00:24.085Z,10.30
2019-02-28T16:02:52.601Z,14.00
2019-02-28T16:05:21.214Z,14.27
2019-02-28T16:07:50.599Z,14.27
2019-02-28T16:10:32.888Z,13.27
2019-02-28T16:13:01.703Z,13.27
2019-02-28T16:15:30.840Z,18.73
2019-02-28T16:17:59.445Z,16.43
2019-02-28T16:20:28.445Z,16.10
2019-02-28T16:22:58.298Z,18.20
2019-02-28T16:25:29.863Z,20.13
2019-02-28T16:27:58.473Z,19.80
2019-02-28T16:30:28.708Z,21.07
2019-02-28T16:32:57.228Z,19.70
2019-02-28T16:35:25.895Z,19.13
2019-02-28T16:37:54.375Z,20.10
2019-02-28T16:40:27.017Z,18.47
2019-02-28T16:42:55.810Z,16.77
2019-02-28T16:45:37.487Z,20.00
2019-02-28T16:48:07.713Z,22.30
2019-02-28T16:50:36.564Z,30.30
2019-02-28T16:53:05.571Z,24.83
2019-02-28T16:55:34.447Z,17.90
2019-02-28T16:58:02.986Z,24.63
2019-02-28T17:00:31.681Z,25.03
2019-02-28T17:03:00.261Z,24.03
2019-02-28T17:05:28.864Z,19.90
2019-02-28T17:07:57.478Z,19.77
2019-02-28T17:10:33.660Z,15.53
2019-02-28T17:13:19.284Z,17.90
2019-02-28T17:16:01.556Z,17.63
2019-02-28T17:18:30.164Z,16.13
2019-02-28T17:20:58.749Z,24.10
2019-02-28T17:23:27.197Z,29.87
2019-02-28T17:25:57.876Z,24.23
2019-02-28T17:28:36.942Z,18.13
2019-02-28T17:31:23.659Z,24.27
2019-02-28T17:33:52.265Z,38.17
2019-02-28T17:36:20.743Z,27.77
2019-02-28T17:38:49.380Z,26.03
2019-02-28T17:41:17.857Z,19.67
2019-02-28T17:44:05.947Z,23.03
2019-02-28T17:46:34.449Z,20.93
2019-02-28T17:49:23.325Z,18.83
2019-02-28T17:51:58.531Z,23.83
2019-02-28T17:54:40.885Z,23.60
2019-02-28T17:57:17.869Z,25.60
2019-02-28T17:59:52.480Z,20.33
2019-02-28T18:02:33.448Z,22.97
2019-02-28T18:05:16.991Z,21.33
2019-02-28T18:08:04.860Z,20.97
2019-02-28T18:10:48.167Z,16.97
2019-02-28T18:13:38.222Z,20.33
2019-02-28T18:16:21.133Z,21.00
2019-02-28T18:19:18.039Z,17.13
2019-02-28T18:22:04.864Z,18.90
2019-02-28T18:24:51.526Z,19.67
2019-02-28T18:27:39.789Z,17.20
2019-02-28T18:30:30.951Z,19.13
2019-02-28T18:32:59.494Z,20.60
2019-02-28T18:35:29.174Z,16.33
2019-02-28T18:38:01.818Z,19.90
2019-02-28T18:40:28.453Z,19.73
2019-02-28T18:42:57.071Z,19.13
2019-02-28T18:45:25.730Z,14.93
2019-02-28T18:47:54.271Z,22.20
2019-02-28T18:50:22.861Z,22.37
2019-02-28T18:52:51.529Z,19.13
2019-02-28T18:55:20.052Z,20.43
2019-02-28T18:57:48.590Z,16.67
2019-02-28T19:00:18.918Z,20.07
2019-02-28T19:02:47.440Z,17.60
2019-02-28T19:05:16.070Z,17.00
2019-02-28T19:07:44.937Z,20.93
2019-02-28T19:10:13.572Z,19.13
2019-02-28T19:12:42.085Z,21.33
2019-02-28T19:15:13.754Z,18.23
2019-02-28T19:17:42.336Z,17.77
2019-02-28T19:20:12.692Z,22.47
2019-02-28T19:22:41.328Z,19.57
2019-02-28T19:25:11.548Z,16.20
2019-02-28T19:27:40.022Z,21.53
2019-02-28T19:30:15.673Z,25.20
2019-02-28T19:32:44.383Z,25.57
2019-02-28T19:35:12.968Z,24.07
2019-02-28T19:37:41.505Z,20.00
2019-02-28T19:40:11.763Z,20.33
2019-02-28T19:42:40.300Z,17.53
2019-02-28T19:45:21.020Z,21.60
2019-02-28T19:47:49.467Z,19.87
2019-02-28T19:50:17.994Z,19.20
2019-02-28T19:52:46.432Z,23.90
2019-02-28T19:55:15.692Z,21.40
2019-02-28T19:57:44.291Z,17.97
2019-02-28T20:00:19.881Z,20.53
2019-02-28T20:02:48.420Z,25.57
2019-02-28T20:05:16.939Z,22.40
2019-02-28T20:07:45.525Z,18.10
2019-02-28T20:10:19.111Z,21.13
2019-02-28T20:12:47.647Z,22.87
2019-02-28T20:15:22.000Z,19.83
2019-02-28T20:17:50.607Z,19.13
2019-02-28T20:20:28.162Z,21.93
2019-02-28T20:22:56.681Z,15.40
2019-02-28T20:25:25.564Z,21.67
2019-02-28T20:27:54.091Z,14.77
2019-02-28T20:30:24.338Z,17.07
2019-02-28T20:32:53.159Z,19.80
2019-02-28T20:35:26.527Z,15.03
2019-02-28T20:37:52.323Z,12.13
2019-02-28T20:40:29.171Z,14.10
2019-02-28T20:42:57.820Z,14.83
2019-02-28T20:45:26.345Z,14.47
2019-02-28T20:47:54.858Z,18.80
2019-02-28T20:50:38.652Z,15.97
2019-02-28T20:53:07.158Z,15.10
2019-02-28T20:55:36.624Z,18.90
2019-02-28T20:58:06.176Z,17.20
2019-02-28T21:00:34.817Z,15.67
2019-02-28T21:03:03.432Z,15.60
2019-02-28T21:05:32.034Z,17.40
2019-02-28T21:08:00.474Z,19.57
2019-02-28T21:10:29.137Z,16.93
2019-02-28T21:12:57.579Z,12.43
2019-02-28T21:15:26.114Z,11.63
2019-02-28T21:17:54.625Z,12.40
2019-02-28T21:20:23.141Z,12.10
2019-02-28T21:22:51.712Z,11.67
2019-02-28T21:25:20.253Z,13.23
2019-02-28T21:27:48.697Z,10.47
2019-02-28T21:30:25.166Z,11.27
2019-02-28T21:32:53.600Z,23.33
2019-02-28T21:35:23.866Z,10.87
2019-02-28T21:37:52.706Z,11.87
2019-02-28T21:40:22.844Z,10.10
2019-02-28T21:42:51.414Z,9.47
2019-02-28T21:45:24.743Z,5.23
2019-02-28T21:47:53.280Z,8.33
2019-02-28T21:50:21.796Z,9.10
2019-02-28T21:52:50.316Z,7.80
2019-02-28T21:55:18.825Z,7.57
2019-02-28T21:57:47.374Z,7.60
2019-02-28T22:00:18.806Z,6.90
2019-02-28T22:02:47.328Z,6.03
2019-02-28T22:05:15.914Z,7.20
2019-02-28T22:07:44.674Z,4.23
2019-02-28T22:10:14.863Z,8.40
2019-02-28T22:12:43.424Z,7.03
2019-02-28T22:15:14.648Z,8.20
2019-02-28T22:17:43.203Z,7.97
2019-02-28T22:20:13.917Z,4.10
2019-02-28T22:22:42.424Z,5.47
2019-02-28T22:25:15.050Z,9.17
2019-02-28T22:27:43.621Z,5.70
2019-02-28T22:30:23.589Z,5.27
2019-02-28T22:32:53.728Z,8.27
2019-02-28T22:35:24.408Z,7.20
2019-02-28T22:37:52.941Z,7.13
2019-02-28T22:40:21.484Z,8.03
2019-02-28T22:42:50.010Z,7.60
2019-02-28T22:45:19.102Z,6.83
2019-02-28T22:47:47.841Z,8.03
2019-02-28T22:50:16.795Z,6.70
2019-02-28T22:52:45.352Z,10.23
2019-02-28T22:55:13.893Z,11.47
2019-02-28T22:57:42.332Z,11.93
2019-02-28T23:00:13.954Z,10.17
2019-02-28T23:02:42.457Z,9.03
2019-02-28T23:05:10.949Z,9.20
2019-02-28T23:07:39.461Z,14.07
2019-02-28T23:10:08.548Z,10.67
2019-02-28T23:12:37.012Z,10.93
2019-02-28T23:15:06.389Z,11.27
2019-02-28T23:17:35.193Z,8.00
2019-02-28T23:20:04.706Z,12.73
2019-02-28T23:22:33.170Z,11.83
2019-02-28T23:25:01.668Z,11.23
2019-02-28T23:27:30.130Z,20.00
2019-02-28T23:30:10.433Z,10.40
2019-02-28T23:32:50.728Z,11.20
2019-02-28T23:35:22.293Z,12.13
2019-02-28T23:37:50.815Z,11.00
2019-02-28T23:40:19.551Z,8.03
2019-02-28T23:42:48.010Z,13.77
2019-02-28T23:45:16.520Z,10.73
2019-02-28T23:47:45.012Z,17.17
2019-02-28T23:50:13.576Z,9.93
2019-02-28T23:52:42.053Z,9.53
2019-02-28T23:55:10.694Z,10.97
2019-02-28T23:57:39.152Z,12.53
